sensor_id;sensor_type;location;lat;lon;timestamp;pressure;altitude;pressure_sealevel;temperature;humidity
9695;BME280;4690;52.422;13.486;2023-01-06T00:04:15;101853.34;;;5.39;77.34
9695;BME280;4690;52.422;13.486;2023-01-06T00:06:40;101853.16;;;5.40;77.47
9695;BME280;4690;52.422;13.486;2023-01-06T00:09:06;101848.06;;;5.46;76.63
9695;BME280;4690;52.422;13.486;2023-01-06T00:11:32;101851.50;;;5.48;77.03
9695;BME280;4690;52.422;13.486;2023-01-06T00:13:58;101847.59;;;5.50;77.34
9695;BME280;4690;52.422;13.486;2023-01-06T00:16:24;101850.81;;;5.54;77.41
9695;BME280;4690;52.422;13.486;2023-01-06T00:18:58;101847.75;;;5.57;77.55
9695;BME280;4690;52.422;13.486;2023-01-06T00:21:24;101858.66;;;5.65;77.89
9695;BME280;4690;52.422;13.486;2023-01-06T00:23:50;101854.06;;;5.66;77.00
9695;BME280;4690;52.422;13.486;2023-01-06T00:26:16;101847.44;;;5.68;77.73
9695;BME280;4690;52.422;13.486;2023-01-06T00:28:42;101844.22;;;5.65;77.66
9695;BME280;4690;52.422;13.486;2023-01-06T00:31:12;101846.94;;;5.65;77.81
9695;BME280;4690;52.422;13.486;2023-01-06T00:33:39;101841.50;;;5.65;78.13
9695;BME280;4690;52.422;13.486;2023-01-06T00:36:07;101835.56;;;5.61;78.28
9695;BME280;4690;52.422;13.486;2023-01-06T00:38:34;101829.91;;;5.54;77.60
9695;BME280;4690;52.422;13.486;2023-01-06T00:41:10;101827.88;;;5.48;78.59
9695;BME280;4690;52.422;13.486;2023-01-06T00:43:55;101822.56;;;5.30;78.02
9695;BME280;4690;52.422;13.486;2023-01-06T00:46:22;101819.03;;;5.38;79.45
9695;BME280;4690;52.422;13.486;2023-01-06T00:48:51;101816.97;;;5.40;78.46
9695;BME280;4690;52.422;13.486;2023-01-06T00:51:17;101832.78;;;5.45;78.44
9695;BME280;4690;52.422;13.486;2023-01-06T00:53:42;101824.31;;;5.48;78.34
9695;BME280;4690;52.422;13.486;2023-01-06T00:56:08;101827.72;;;5.50;78.27
9695;BME280;4690;52.422;13.486;2023-01-06T00:58:34;101821.44;;;5.49;77.74
9695;BME280;4690;52.422;13.486;2023-01-06T01:01:05;101833.31;;;5.48;77.88
9695;BME280;4690;52.422;13.486;2023-01-06T01:03:33;101838.03;;;5.46;77.37
9695;BME280;4690;52.422;13.486;2023-01-06T01:06:01;101837.91;;;5.48;78.64
9695;BME280;4690;52.422;13.486;2023-01-06T01:08:28;101830.59;;;5.48;77.87
9695;BME280;4690;52.422;13.486;2023-01-06T01:10:59;101830.59;;;5.48;77.91
9695;BME280;4690;52.422;13.486;2023-01-06T01:13:26;101825.34;;;5.47;77.75
9695;BME280;4690;52.422;13.486;2023-01-06T01:15:52;101826.50;;;5.44;78.21
9695;BME280;4690;52.422;13.486;2023-01-06T01:18:18;101827.34;;;5.45;77.40
9695;BME280;4690;52.422;13.486;2023-01-06T01:20:46;101822.06;;;5.43;78.10
9695;BME280;4690;52.422;13.486;2023-01-06T01:23:12;101823.59;;;5.46;78.01
9695;BME280;4690;52.422;13.486;2023-01-06T01:25:38;101821.59;;;5.48;77.96
9695;BME280;4690;52.422;13.486;2023-01-06T01:28:06;101821.44;;;5.49;78.50
9695;BME280;4690;52.422;13.486;2023-01-06T01:30:32;101827.19;;;5.54;78.11
9695;BME280;4690;52.422;13.486;2023-01-06T01:32:57;101820.22;;;5.52;78.73
9695;BME280;4690;52.422;13.486;2023-01-06T01:35:24;101818.22;;;5.62;78.18
9695;BME280;4690;52.422;13.486;2023-01-06T01:37:49;101821.78;;;5.62;77.69
9695;BME280;4690;52.422;13.486;2023-01-06T01:40:15;101814.81;;;5.68;78.07
9695;BME280;4690;52.422;13.486;2023-01-06T01:42:41;101810.06;;;5.70;78.27
9695;BME280;4690;52.422;13.486;2023-01-06T01:45:34;101810.91;;;5.71;78.34
9695;BME280;4690;52.422;13.486;2023-01-06T01:48:31;101813.47;;;5.80;77.68
9695;BME280;4690;52.422;13.486;2023-01-06T01:51:04;101815.19;;;5.90;77.88
9695;BME280;4690;52.422;13.486;2023-01-06T01:53:51;101819.44;;;5.92;77.45
9695;BME280;4690;52.422;13.486;2023-01-06T01:56:24;101814.53;;;5.96;77.56
9695;BME280;4690;52.422;13.486;2023-01-06T01:59:11;101811.31;;;6.00;77.54
9695;BME280;4690;52.422;13.486;2023-01-06T02:01:38;101805.53;;;5.95;77.51
9695;BME280;4690;52.422;13.486;2023-01-06T02:04:05;101805.03;;;6.00;76.63
9695;BME280;4690;52.422;13.486;2023-01-06T02:06:31;101791.22;;;5.93;77.52
9695;BME280;4690;52.422;13.486;2023-01-06T02:09:14;101784.91;;;5.93;76.92
9695;BME280;4690;52.422;13.486;2023-01-06T02:11:43;101795.13;;;5.99;76.82
9695;BME280;4690;52.422;13.486;2023-01-06T02:14:13;101791.22;;;6.01;76.60
9695;BME280;4690;52.422;13.486;2023-01-06T02:35:00;101779.66;;;6.16;75.74
9695;BME280;4690;52.422;13.486;2023-01-06T02:37:46;101764.00;;;6.18;75.09
9695;BME280;4690;52.422;13.486;2023-01-06T02:50:02;101754.81;;;6.19;75.75
9695;BME280;4690;52.422;13.486;2023-01-06T02:55:15;101760.78;;;6.22;75.90
9695;BME280;4690;52.422;13.486;2023-01-06T02:58:05;101755.13;;;6.24;75.83
9695;BME280;4690;52.422;13.486;2023-01-06T03:00:49;101752.25;;;6.25;75.07
9695;BME280;4690;52.422;13.486;2023-01-06T03:03:23;101748.84;;;6.23;75.25
9695;BME280;4690;52.422;13.486;2023-01-06T03:05:58;101758.91;;;6.23;75.58
9695;BME280;4690;52.422;13.486;2023-01-06T03:08:30;101751.38;;;6.25;75.84
9695;BME280;4690;52.422;13.486;2023-01-06T03:10:58;101745.09;;;6.24;75.53
9695;BME280;4690;52.422;13.486;2023-01-06T03:16:17;101749.34;;;6.19;75.81
9695;BME280;4690;52.422;13.486;2023-01-06T03:18:47;101751.38;;;6.33;75.01
9695;BME280;4690;52.422;13.486;2023-01-06T03:21:20;101738.44;;;6.35;74.91
9695;BME280;4690;52.422;13.486;2023-01-06T03:23:47;101741.19;;;6.27;74.86
9695;BME280;4690;52.422;13.486;2023-01-06T03:26:14;101736.59;;;6.19;75.46
9695;BME280;4690;52.422;13.486;2023-01-06T03:28:39;101739.66;;;6.24;75.23
9695;BME280;4690;52.422;13.486;2023-01-06T03:33:47;101723.28;;;6.41;75.50
9695;BME280;4690;52.422;13.486;2023-01-06T03:36:28;101723.47;;;6.39;74.99
9695;BME280;4690;52.422;13.486;2023-01-06T03:39:13;101721.78;;;6.30;75.31
9695;BME280;4690;52.422;13.486;2023-01-06T03:41:51;101721.41;;;6.33;75.37
9695;BME280;4690;52.422;13.486;2023-01-06T03:47:50;101713.28;;;6.25;75.43
9695;BME280;4690;52.422;13.486;2023-01-06T03:50:35;101707.50;;;6.28;75.95
9695;BME280;4690;52.422;13.486;2023-01-06T03:53:28;101706.47;;;6.29;76.30
9695;BME280;4690;52.422;13.486;2023-01-06T03:56:16;101695.72;;;6.36;75.96
9695;BME280;4690;52.422;13.486;2023-01-06T03:58:48;101692.47;;;6.40;76.19
9695;BME280;4690;52.422;13.486;2023-01-06T04:01:16;101690.75;;;6.47;75.37
9695;BME280;4690;52.422;13.486;2023-01-06T04:03:46;101693.19;;;6.34;76.19
9695;BME280;4690;52.422;13.486;2023-01-06T04:06:13;101696.63;;;6.28;76.51
9695;BME280;4690;52.422;13.486;2023-01-06T04:08:38;101687.78;;;6.26;76.61
9695;BME280;4690;52.422;13.486;2023-01-06T04:11:04;101684.50;;;6.31;76.73
9695;BME280;4690;52.422;13.486;2023-01-06T04:13:30;101687.75;;;6.34;76.51
9695;BME280;4690;52.422;13.486;2023-01-06T04:15:56;101683.59;;;6.46;76.04
9695;BME280;4690;52.422;13.486;2023-01-06T04:18:21;101684.28;;;6.48;76.13
9695;BME280;4690;52.422;13.486;2023-01-06T04:20:47;101679.69;;;6.49;75.92
9695;BME280;4690;52.422;13.486;2023-01-06T04:23:13;101682.53;;;6.56;76.11
9695;BME280;4690;52.422;13.486;2023-01-06T04:25:38;101682.25;;;6.50;76.03
9695;BME280;4690;52.422;13.486;2023-01-06T04:28:04;101680.84;;;6.55;76.47
9695;BME280;4690;52.422;13.486;2023-01-06T04:30:30;101683.72;;;6.53;76.02
9695;BME280;4690;52.422;13.486;2023-01-06T04:32:55;101679.53;;;6.50;76.64
9695;BME280;4690;52.422;13.486;2023-01-06T04:35:21;101682.53;;;6.56;76.41
9695;BME280;4690;52.422;13.486;2023-01-06T04:37:47;101673.47;;;6.63;76.40
9695;BME280;4690;52.422;13.486;2023-01-06T04:40:13;101668.47;;;6.75;76.12
9695;BME280;4690;52.422;13.486;2023-01-06T04:42:39;101663.03;;;6.75;75.92
9695;BME280;4690;52.422;13.486;2023-01-06T04:45:23;101654.03;;;6.74;76.38
9695;BME280;4690;52.422;13.486;2023-01-06T04:47:49;101657.25;;;6.70;75.82
9695;BME280;4690;52.422;13.486;2023-01-06T04:50:15;101645.38;;;6.71;76.12
9695;BME280;4690;52.422;13.486;2023-01-06T04:52:40;101660.34;;;6.67;76.43
9695;BME280;4690;52.422;13.486;2023-01-06T04:55:07;101658.50;;;6.67;76.34
9695;BME280;4690;52.422;13.486;2023-01-06T04:57:33;101642.44;;;6.72;76.12
9695;BME280;4690;52.422;13.486;2023-01-06T04:59:59;101634.94;;;6.74;76.50
9695;BME280;4690;52.422;13.486;2023-01-06T05:02:24;101629.97;;;6.78;76.31
9695;BME280;4690;52.422;13.486;2023-01-06T05:04:50;101626.91;;;6.81;76.46
9695;BME280;4690;52.422;13.486;2023-01-06T05:07:16;101618.19;;;6.86;76.17
9695;BME280;4690;52.422;13.486;2023-01-06T05:09:41;101623.63;;;6.86;76.38
9695;BME280;4690;52.422;13.486;2023-01-06T05:12:07;101614.00;;;6.75;76.91
9695;BME280;4690;52.422;13.486;2023-01-06T05:14:33;101607.75;;;6.66;77.02
9695;BME280;4690;52.422;13.486;2023-01-06T05:16:59;101603.97;;;6.44;78.59
9695;BME280;4690;52.422;13.486;2023-01-06T05:19:24;101602.28;;;6.43;79.03
9695;BME280;4690;52.422;13.486;2023-01-06T05:21:50;101609.97;;;6.40;79.42
9695;BME280;4690;52.422;13.486;2023-01-06T05:24:16;101602.31;;;6.35;79.66
9695;BME280;4690;52.422;13.486;2023-01-06T05:26:42;101595.22;;;6.26;80.56
9695;BME280;4690;52.422;13.486;2023-01-06T05:29:12;101595.34;;;6.33;80.32
9695;BME280;4690;52.422;13.486;2023-01-06T05:31:38;101596.59;;;6.22;81.45
9695;BME280;4690;52.422;13.486;2023-01-06T05:34:04;101602.19;;;6.28;82.09
9695;BME280;4690;52.422;13.486;2023-01-06T05:36:29;101588.34;;;6.38;81.25
9695;BME280;4690;52.422;13.486;2023-01-06T05:38:55;101594.97;;;6.44;81.08
9695;BME280;4690;52.422;13.486;2023-01-06T05:41:21;101597.84;;;6.50;81.09
9695;BME280;4690;52.422;13.486;2023-01-06T05:43:47;101586.59;;;6.54;81.31
9695;BME280;4690;52.422;13.486;2023-01-06T05:46:12;101593.13;;;6.36;82.08
9695;BME280;4690;52.422;13.486;2023-01-06T05:48:39;101588.34;;;6.38;82.96
9695;BME280;4690;52.422;13.486;2023-01-06T05:51:14;101579.19;;;6.39;83.29
9695;BME280;4690;52.422;13.486;2023-01-06T05:53:44;101584.63;;;6.39;84.48
9695;BME280;4690;52.422;13.486;2023-01-06T05:56:14;101567.41;;;6.39;84.56
9695;BME280;4690;52.422;13.486;2023-01-06T05:58:45;101563.84;;;6.38;84.87
9695;BME280;4690;52.422;13.486;2023-01-06T06:01:26;101565.00;;;6.44;85.18
9695;BME280;4690;52.422;13.486;2023-01-06T06:03:54;101555.31;;;6.41;84.89
9695;BME280;4690;52.422;13.486;2023-01-06T06:06:22;101557.41;;;6.39;85.74
9695;BME280;4690;52.422;13.486;2023-01-06T06:08:49;101549.50;;;6.44;85.42
9695;BME280;4690;52.422;13.486;2023-01-06T06:11:18;101559.56;;;6.44;85.88
9695;BME280;4690;52.422;13.486;2023-01-06T06:13:52;101567.06;;;6.42;86.18
9695;BME280;4690;52.422;13.486;2023-01-06T06:16:22;101563.31;;;6.43;85.66
9695;BME280;4690;52.422;13.486;2023-01-06T06:18:51;101564.13;;;6.51;86.07
9695;BME280;4690;52.422;13.486;2023-01-06T06:21:22;101550.69;;;6.50;86.15
9695;BME280;4690;52.422;13.486;2023-01-06T06:23:49;101548.25;;;6.55;86.30
9695;BME280;4690;52.422;13.486;2023-01-06T06:26:16;101546.28;;;6.49;86.70
9695;BME280;4690;52.422;13.486;2023-01-06T06:28:42;101539.94;;;6.57;86.63
9695;BME280;4690;52.422;13.486;2023-01-06T06:31:15;101541.75;;;6.33;87.22
9695;BME280;4690;52.422;13.486;2023-01-06T06:33:42;101541.13;;;6.31;87.80
9695;BME280;4690;52.422;13.486;2023-01-06T06:36:09;101537.41;;;6.47;87.45
9695;BME280;4690;52.422;13.486;2023-01-06T06:38:46;101532.66;;;6.49;87.37
9695;BME280;4690;52.422;13.486;2023-01-06T06:41:13;101539.25;;;6.55;88.12
9695;BME280;4690;52.422;13.486;2023-01-06T06:43:39;101538.78;;;6.51;88.66
9695;BME280;4690;52.422;13.486;2023-01-06T06:46:05;101542.69;;;6.48;89.45
9695;BME280;4690;52.422;13.486;2023-01-06T06:48:32;101526.53;;;6.47;90.37
9695;BME280;4690;52.422;13.486;2023-01-06T06:51:19;101522.28;;;6.44;91.10
9695;BME280;4690;52.422;13.486;2023-01-06T06:53:46;101522.25;;;6.53;91.70
9695;BME280;4690;52.422;13.486;2023-01-06T06:56:14;101511.34;;;6.53;91.84
9695;BME280;4690;52.422;13.486;2023-01-06T06:58:40;101509.88;;;6.42;93.08
9695;BME280;4690;52.422;13.486;2023-01-06T07:01:09;101503.69;;;6.25;94.28
9695;BME280;4690;52.422;13.486;2023-01-06T07:03:36;101508.88;;;6.20;95.70
9695;BME280;4690;52.422;13.486;2023-01-06T07:06:03;101515.59;;;6.32;94.93
9695;BME280;4690;52.422;13.486;2023-01-06T07:08:31;101510.72;;;6.19;95.58
9695;BME280;4690;52.422;13.486;2023-01-06T07:11:00;101508.97;;;6.26;96.28
9695;BME280;4690;52.422;13.486;2023-01-06T07:13:26;101505.94;;;6.21;96.04
9695;BME280;4690;52.422;13.486;2023-01-06T07:15:52;101501.53;;;6.20;96.72
9695;BME280;4690;52.422;13.486;2023-01-06T07:18:18;101497.84;;;6.36;96.12
9695;BME280;4690;52.422;13.486;2023-01-06T07:20:49;101503.22;;;6.44;95.70
9695;BME280;4690;52.422;13.486;2023-01-06T07:23:18;101503.53;;;6.49;96.04
9695;BME280;4690;52.422;13.486;2023-01-06T07:25:44;101500.28;;;6.54;95.51
9695;BME280;4690;52.422;13.486;2023-01-06T07:28:10;101498.47;;;6.46;96.11
9695;BME280;4690;52.422;13.486;2023-01-06T07:30:36;101502.66;;;6.34;96.55
9695;BME280;4690;52.422;13.486;2023-01-06T07:33:02;101506.44;;;6.25;96.77
9695;BME280;4690;52.422;13.486;2023-01-06T07:35:29;101506.31;;;6.41;96.94
9695;BME280;4690;52.422;13.486;2023-01-06T07:37:54;101508.94;;;6.58;96.15
9695;BME280;4690;52.422;13.486;2023-01-06T07:40:20;101512.03;;;6.55;96.30
9695;BME280;4690;52.422;13.486;2023-01-06T07:42:46;101514.63;;;6.48;96.06
9695;BME280;4690;52.422;13.486;2023-01-06T07:45:12;101510.91;;;6.64;96.51
9695;BME280;4690;52.422;13.486;2023-01-06T07:47:38;101509.19;;;6.71;95.90
9695;BME280;4690;52.422;13.486;2023-01-06T07:50:05;101504.28;;;6.66;95.37
9695;BME280;4690;52.422;13.486;2023-01-06T07:52:31;101500.09;;;6.79;95.47
9695;BME280;4690;52.422;13.486;2023-01-06T07:54:57;101492.03;;;6.85;95.19
9695;BME280;4690;52.422;13.486;2023-01-06T07:57:28;101497.94;;;6.89;95.34
9695;BME280;4690;52.422;13.486;2023-01-06T07:59:55;101503.28;;;6.82;95.07
9695;BME280;4690;52.422;13.486;2023-01-06T08:02:21;101508.13;;;6.72;95.39
9695;BME280;4690;52.422;13.486;2023-01-06T08:04:47;101506.56;;;6.78;95.44
9695;BME280;4690;52.422;13.486;2023-01-06T08:07:14;101516.56;;;6.62;96.28
9695;BME280;4690;52.422;13.486;2023-01-06T08:09:41;101510.09;;;6.63;96.85
9695;BME280;4690;52.422;13.486;2023-01-06T08:12:07;101500.56;;;6.82;96.57
9695;BME280;4690;52.422;13.486;2023-01-06T08:14:32;101487.81;;;6.97;96.17
9695;BME280;4690;52.422;13.486;2023-01-06T08:16:58;101482.28;;;7.06;95.92
9695;BME280;4690;52.422;13.486;2023-01-06T08:19:24;101466.06;;;7.12;95.17
9695;BME280;4690;52.422;13.486;2023-01-06T08:21:50;101481.06;;;7.08;94.99
9695;BME280;4690;52.422;13.486;2023-01-06T08:24:16;101475.81;;;7.07;95.35
9695;BME280;4690;52.422;13.486;2023-01-06T08:26:41;101477.59;;;7.14;95.46
9695;BME280;4690;52.422;13.486;2023-01-06T08:29:07;101479.84;;;7.11;95.33
9695;BME280;4690;52.422;13.486;2023-01-06T08:31:33;101485.84;;;7.06;95.77
9695;BME280;4690;52.422;13.486;2023-01-06T08:33:59;101490.69;;;7.19;95.31
9695;BME280;4690;52.422;13.486;2023-01-06T08:36:26;101477.06;;;7.19;95.51
9695;BME280;4690;52.422;13.486;2023-01-06T08:38:52;101461.44;;;7.28;95.19
9695;BME280;4690;52.422;13.486;2023-01-06T08:41:19;101451.75;;;7.25;95.36
9695;BME280;4690;52.422;13.486;2023-01-06T08:43:45;101454.19;;;7.20;95.40
9695;BME280;4690;52.422;13.486;2023-01-06T08:46:18;101456.16;;;7.26;95.65
9695;BME280;4690;52.422;13.486;2023-01-06T08:48:46;101462.19;;;7.36;95.17
9695;BME280;4690;52.422;13.486;2023-01-06T08:51:18;101459.56;;;7.43;94.80
9695;BME280;4690;52.422;13.486;2023-01-06T08:53:45;101461.06;;;7.46;94.88
9695;BME280;4690;52.422;13.486;2023-01-06T08:56:22;101453.75;;;7.31;95.63
9695;BME280;4690;52.422;13.486;2023-01-06T08:59:00;101448.94;;;7.33;95.64
9695;BME280;4690;52.422;13.486;2023-01-06T09:01:34;101432.47;;;7.12;96.42
9695;BME280;4690;52.422;13.486;2023-01-06T09:04:04;101434.50;;;7.18;96.80
9695;BME280;4690;52.422;13.486;2023-01-06T09:06:31;101415.47;;;7.39;97.17
9695;BME280;4690;52.422;13.486;2023-01-06T09:08:58;101406.91;;;7.43;96.93
9695;BME280;4690;52.422;13.486;2023-01-06T09:11:25;101413.09;;;7.51;96.77
9695;BME280;4690;52.422;13.486;2023-01-06T09:13:51;101430.13;;;7.53;96.53
9695;BME280;4690;52.422;13.486;2023-01-06T09:16:19;101434.19;;;7.43;96.81
9695;BME280;4690;52.422;13.486;2023-01-06T09:18:45;101434.38;;;7.56;96.96
9695;BME280;4690;52.422;13.486;2023-01-06T09:21:17;101426.53;;;7.68;96.70
9695;BME280;4690;52.422;13.486;2023-01-06T09:23:44;101444.69;;;7.46;97.32
9695;BME280;4690;52.422;13.486;2023-01-06T09:26:10;101445.66;;;7.53;97.67
9695;BME280;4690;52.422;13.486;2023-01-06T09:28:36;101451.81;;;7.76;97.43
9695;BME280;4690;52.422;13.486;2023-01-06T09:31:02;101441.72;;;7.92;96.59
9695;BME280;4690;52.422;13.486;2023-01-06T09:33:28;101439.38;;;7.89;96.45
9695;BME280;4690;52.422;13.486;2023-01-06T09:35:53;101429.44;;;8.02;96.49
9695;BME280;4690;52.422;13.486;2023-01-06T09:38:19;101421.72;;;8.06;96.16
9695;BME280;4690;52.422;13.486;2023-01-06T09:46:30;101413.50;;;8.42;95.52
9695;BME280;4690;52.422;13.486;2023-01-06T09:55:41;101394.72;;;8.11;97.49
9695;BME280;4690;52.422;13.486;2023-01-06T09:58:24;101397.94;;;8.21;97.89
9695;BME280;4690;52.422;13.486;2023-01-06T10:00:55;101399.25;;;8.25;97.57
9695;BME280;4690;52.422;13.486;2023-01-06T10:03:24;101390.16;;;8.40;97.29
9695;BME280;4690;52.422;13.486;2023-01-06T10:25:53;101341.94;;;8.82;96.72
9695;BME280;4690;52.422;13.486;2023-01-06T10:28:33;101339.44;;;8.87;96.16
9695;BME280;4690;52.422;13.486;2023-01-06T10:31:12;101334.59;;;8.82;96.75
9695;BME280;4690;52.422;13.486;2023-01-06T10:33:49;101329.81;;;8.97;96.46
9695;BME280;4690;52.422;13.486;2023-01-06T10:36:24;101332.19;;;8.72;97.35
9695;BME280;4690;52.422;13.486;2023-01-06T10:38:53;101331.72;;;8.97;96.99
9695;BME280;4690;52.422;13.486;2023-01-06T10:44:17;101308.50;;;9.21;96.57
9695;BME280;4690;52.422;13.486;2023-01-06T10:46:44;101302.88;;;9.36;96.16
9695;BME280;4690;52.422;13.486;2023-01-06T10:49:20;101300.19;;;9.49;95.93
9695;BME280;4690;52.422;13.486;2023-01-06T10:51:59;101309.47;;;9.55;95.61
9695;BME280;4690;52.422;13.486;2023-01-06T10:54:31;101303.28;;;9.39;96.86
9695;BME280;4690;52.422;13.486;2023-01-06T10:57:05;101295.09;;;9.33;97.41
9695;BME280;4690;52.422;13.486;2023-01-06T11:00:20;101290.25;;;9.41;97.83
9695;BME280;4690;52.422;13.486;2023-01-06T11:02:51;101298.53;;;9.55;97.70
9695;BME280;4690;52.422;13.486;2023-01-06T11:05:26;101286.31;;;9.71;97.56
9695;BME280;4690;52.422;13.486;2023-01-06T11:08:05;101283.13;;;9.54;98.11
9695;BME280;4690;52.422;13.486;2023-01-06T11:10:44;101297.72;;;9.81;98.31
9695;BME280;4690;52.422;13.486;2023-01-06T11:13:34;101290.56;;;9.93;97.35
9695;BME280;4690;52.422;13.486;2023-01-06T11:16:04;101286.34;;;9.84;97.74
9695;BME280;4690;52.422;13.486;2023-01-06T11:18:33;101280.88;;;10.10;97.58
9695;BME280;4690;52.422;13.486;2023-01-06T11:21:13;101287.41;;;10.16;97.07
9695;BME280;4690;52.422;13.486;2023-01-06T11:23:43;101277.53;;;10.15;96.18
9695;BME280;4690;52.422;13.486;2023-01-06T11:28:38;101263.41;;;10.05;97.26
9695;BME280;4690;52.422;13.486;2023-01-06T11:31:32;101261.50;;;10.12;97.00
9695;BME280;4690;52.422;13.486;2023-01-06T11:34:01;101244.69;;;10.08;97.50
9695;BME280;4690;52.422;13.486;2023-01-06T11:36:32;101252.25;;;10.20;97.14
9695;BME280;4690;52.422;13.486;2023-01-06T11:39:24;101240.88;;;10.09;97.51
9695;BME280;4690;52.422;13.486;2023-01-06T11:41:54;101255.19;;;9.98;98.22
9695;BME280;4690;52.422;13.486;2023-01-06T11:44:34;101246.34;;;9.96;98.35
9695;BME280;4690;52.422;13.486;2023-01-06T11:47:20;101249.09;;;9.83;99.69
9695;BME280;4690;52.422;13.486;2023-01-06T11:49:54;101242.97;;;9.81;100.00
9695;BME280;4690;52.422;13.486;2023-01-06T11:52:31;101241.94;;;10.08;100.00
9695;BME280;4690;52.422;13.486;2023-01-06T12:11:15;101236.66;;;9.87;100.00
9695;BME280;4690;52.422;13.486;2023-01-06T12:13:44;101229.91;;;9.76;100.00
9695;BME280;4690;52.422;13.486;2023-01-06T12:16:30;101223.19;;;9.99;100.00
9695;BME280;4690;52.422;13.486;2023-01-06T12:18:59;101214.53;;;10.02;100.00
9695;BME280;4690;52.422;13.486;2023-01-06T12:21:31;101213.69;;;10.21;100.00
9695;BME280;4690;52.422;13.486;2023-01-06T12:24:04;101220.44;;;10.05;100.00
9695;BME280;4690;52.422;13.486;2023-01-06T12:26:32;101221.28;;;10.32;100.00
9695;BME280;4690;52.422;13.486;2023-01-06T12:29:01;101218.97;;;10.36;100.00
9695;BME280;4690;52.422;13.486;2023-01-06T12:37:26;101197.28;;;10.28;100.00
9695;BME280;4690;52.422;13.486;2023-01-06T12:40:43;101204.41;;;10.36;100.00
9695;BME280;4690;52.422;13.486;2023-01-06T12:43:21;101199.53;;;10.51;100.00
9695;BME280;4690;52.422;13.486;2023-01-06T12:46:17;101196.50;;;10.72;100.00
9695;BME280;4690;52.422;13.486;2023-01-06T12:48:50;101192.97;;;10.59;99.66
9695;BME280;4690;52.422;13.486;2023-01-06T12:51:38;101195.94;;;10.57;99.99
9695;BME280;4690;52.422;13.486;2023-01-06T12:54:30;101190.28;;;10.45;100.00
9695;BME280;4690;52.422;13.486;2023-01-06T12:57:19;101191.09;;;10.52;100.00
9695;BME280;4690;52.422;13.486;2023-01-06T12:59:56;101194.41;;;10.68;99.39
9695;BME280;4690;52.422;13.486;2023-01-06T13:02:53;101187.47;;;10.59;99.88
9695;BME280;4690;52.422;13.486;2023-01-06T13:11:37;101191.91;;;10.60;99.61
9695;BME280;4690;52.422;13.486;2023-01-06T13:14:58;101186.19;;;10.68;99.00
9695;BME280;4690;52.422;13.486;2023-01-06T13:17:34;101195.25;;;10.68;99.01
9695;BME280;4690;52.422;13.486;2023-01-06T13:20:02;101198.22;;;10.60;99.05
9695;BME280;4690;52.422;13.486;2023-01-06T13:28:53;101205.81;;;10.65;99.71
9695;BME280;4690;52.422;13.486;2023-01-06T13:31:34;101207.88;;;10.76;99.54
9695;BME280;4690;52.422;13.486;2023-01-06T13:37:37;101211.88;;;10.80;99.45
9695;BME280;4690;52.422;13.486;2023-01-06T13:40:17;101209.88;;;11.00;97.64
9695;BME280;4690;52.422;13.486;2023-01-06T13:43:00;101206.69;;;11.04;97.99
9695;BME280;4690;52.422;13.486;2023-01-06T13:47:58;101211.97;;;11.05;96.93
9695;BME280;4690;52.422;13.486;2023-01-06T13:50:26;101211.56;;;11.02;96.54
9695;BME280;4690;52.422;13.486;2023-01-06T13:52:53;101220.00;;;11.07;96.83
9695;BME280;4690;52.422;13.486;2023-01-06T13:55:46;101218.81;;;10.83;95.92
9695;BME280;4690;52.422;13.486;2023-01-06T14:01:11;101234.38;;;10.95;96.46
9695;BME280;4690;52.422;13.486;2023-01-06T14:04:59;101232.00;;;11.06;95.87
9695;BME280;4690;52.422;13.486;2023-01-06T14:07:01;101228.47;;;10.98;95.39
9695;BME280;4690;52.422;13.486;2023-01-06T14:09:30;101227.00;;;10.89;95.79
9695;BME280;4690;52.422;13.486;2023-01-06T14:12:16;101243.81;;;11.06;95.89
9695;BME280;4690;52.422;13.486;2023-01-06T14:14:43;101246.59;;;10.99;95.81
9695;BME280;4690;52.422;13.486;2023-01-06T14:17:40;101254.34;;;11.16;95.06
9695;BME280;4690;52.422;13.486;2023-01-06T14:23:20;101259.53;;;11.31;93.95
9695;BME280;4690;52.422;13.486;2023-01-06T14:25:54;101256.16;;;11.29;94.26
9695;BME280;4690;52.422;13.486;2023-01-06T14:30:48;101261.53;;;11.04;94.13
9695;BME280;4690;52.422;13.486;2023-01-06T14:33:39;101260.69;;;11.03;95.04
9695;BME280;4690;52.422;13.486;2023-01-06T14:36:15;101258.03;;;10.90;96.16
9695;BME280;4690;52.422;13.486;2023-01-06T14:38:59;101265.16;;;10.97;96.00
9695;BME280;4690;52.422;13.486;2023-01-06T14:41:47;101264.19;;;10.79;96.31
9695;BME280;4690;52.422;13.486;2023-01-06T14:44:23;101254.25;;;10.84;96.11
9695;BME280;4690;52.422;13.486;2023-01-06T14:46:56;101265.47;;;10.69;96.75
9695;BME280;4690;52.422;13.486;2023-01-06T14:49:35;101263.13;;;10.80;96.85
9695;BME280;4690;52.422;13.486;2023-01-06T14:52:13;101267.25;;;11.02;96.47
9695;BME280;4690;52.422;13.486;2023-01-06T14:54:43;101273.00;;;10.87;96.13
9695;BME280;4690;52.422;13.486;2023-01-06T14:57:33;101276.97;;;11.05;96.85
9695;BME280;4690;52.422;13.486;2023-01-06T15:00:24;101271.00;;;11.14;95.93
9695;BME280;4690;52.422;13.486;2023-01-06T15:02:58;101279.22;;;11.21;95.36
9695;BME280;4690;52.422;13.486;2023-01-06T15:05:37;101282.78;;;11.21;94.62
9695;BME280;4690;52.422;13.486;2023-01-06T15:10:39;101291.91;;;11.09;94.96
9695;BME280;4690;52.422;13.486;2023-01-06T15:13:31;101290.03;;;11.03;95.81
9695;BME280;4690;52.422;13.486;2023-01-06T15:16:35;101298.06;;;10.97;96.14
9695;BME280;4690;52.422;13.486;2023-01-06T15:19:08;101293.81;;;11.08;96.16
9695;BME280;4690;52.422;13.486;2023-01-06T15:21:43;101294.22;;;11.18;95.64
9695;BME280;4690;52.422;13.486;2023-01-06T15:24:26;101292.72;;;11.16;95.64
9695;BME280;4690;52.422;13.486;2023-01-06T15:27:02;101289.41;;;11.07;95.26
9695;BME280;4690;52.422;13.486;2023-01-06T15:29:28;101285.81;;;11.07;95.46
9695;BME280;4690;52.422;13.486;2023-01-06T15:31:55;101303.59;;;10.84;96.33
9695;BME280;4690;52.422;13.486;2023-01-06T15:34:31;101303.16;;;10.94;95.69
9695;BME280;4690;52.422;13.486;2023-01-06T15:37:00;101310.53;;;10.87;96.17
9695;BME280;4690;52.422;13.486;2023-01-06T15:39:30;101317.34;;;10.71;96.31
9695;BME280;4690;52.422;13.486;2023-01-06T15:41:58;101319.63;;;10.81;96.33
9695;BME280;4690;52.422;13.486;2023-01-06T15:44:36;101329.53;;;10.75;96.02